createdAt,value
2017-05-27T00:00:50.200Z,21.5
2017-05-27T00:01:58.285Z,21.5
2017-05-27T00:03:06.371Z,21.5
2017-05-27T00:04:14.457Z,21.4
2017-05-27T00:05:22.545Z,21.5
2017-05-27T00:06:30.630Z,21.5
2017-05-27T00:07:38.718Z,21.5
2017-05-27T00:08:46.809Z,21.4
2017-05-27T00:09:54.892Z,21.4
2017-05-27T00:11:02.975Z,21.4
2017-05-27T00:12:11.062Z,21.4
2017-05-27T00:13:19.149Z,21.4
2017-05-27T00:14:27.236Z,21.4
2017-05-27T00:15:35.320Z,21.4
2017-05-27T00:16:43.413Z,21.4
2017-05-27T00:17:51.501Z,21.4
2017-05-27T00:18:59.584Z,21.4
2017-05-27T00:20:07.671Z,21.4
2017-05-27T00:21:15.755Z,21.4
2017-05-27T00:22:23.843Z,21.4
2017-05-27T00:23:31.929Z,21.4
2017-05-27T00:24:40.018Z,21.4
2017-05-27T00:25:48.111Z,21.3
2017-05-27T00:26:56.196Z,21.4
2017-05-27T00:28:04.281Z,21.3
2017-05-27T00:29:12.370Z,21.3
2017-05-27T00:30:20.463Z,21.3
2017-05-27T00:31:28.542Z,21.4
2017-05-27T00:32:36.628Z,21.3
2017-05-27T00:33:44.720Z,21.3
2017-05-27T00:34:52.806Z,21.3
2017-05-27T00:36:00.894Z,21.3
2017-05-27T00:37:08.975Z,21.4
2017-05-27T00:38:17.070Z,21.3
2017-05-27T00:39:25.148Z,21.4
2017-05-27T00:40:33.236Z,21.3
2017-05-27T00:41:41.324Z,21.4
2017-05-27T00:42:56.645Z,21.4
2017-05-27T00:43:57.494Z,21.3
2017-05-27T00:45:05.579Z,21.3
2017-05-27T00:46:13.664Z,21.3
2017-05-27T00:47:21.751Z,21.3
2017-05-27T00:48:29.837Z,21.3
2017-05-27T00:49:37.923Z,21.3
2017-05-27T00:50:46.009Z,21.3
2017-05-27T00:51:54.096Z,21.2
2017-05-27T00:53:02.184Z,21.3
2017-05-27T00:54:10.268Z,21.3
2017-05-27T00:55:18.360Z,21.3
2017-05-27T00:56:26.440Z,21.2
2017-05-27T00:57:34.525Z,21.2
2017-05-27T00:58:42.611Z,21.2
2017-05-27T00:59:50.700Z,21.3
2017-05-27T01:00:58.793Z,21.2
2017-05-27T01:02:06.872Z,21.3
2017-05-27T01:03:14.958Z,21.3
2017-05-27T01:04:23.044Z,21.2
2017-05-27T01:05:31.130Z,21.3
2017-05-27T01:06:39.215Z,21.3
2017-05-27T01:07:47.301Z,21.2
2017-05-27T01:08:55.388Z,21.2
2017-05-27T01:10:03.474Z,21.2
2017-05-27T01:11:11.561Z,21.2
2017-05-27T01:12:19.647Z,21.2
2017-05-27T01:13:27.736Z,21.1
2017-05-27T01:14:35.821Z,21.1
2017-05-27T01:15:43.907Z,21.2
2017-05-27T01:16:51.992Z,21.1
2017-05-27T01:18:00.079Z,21.2
2017-05-27T01:19:08.164Z,21.2
2017-05-27T01:20:16.275Z,21.1
2017-05-27T01:21:24.361Z,21.2
2017-05-27T01:22:32.423Z,21.2
2017-05-27T01:23:40.509Z,21.1
2017-05-27T01:24:48.595Z,21.2
2017-05-27T01:25:56.681Z,21.1
2017-05-27T01:27:04.765Z,21.2
2017-05-27T01:28:12.852Z,21.1
2017-05-27T01:29:20.944Z,21.2
2017-05-27T01:30:29.024Z,21.1
2017-05-27T01:31:37.112Z,21.0
2017-05-27T01:32:45.207Z,21.2
2017-05-27T01:33:53.290Z,21.2
2017-05-27T01:35:01.372Z,21.1
2017-05-27T01:36:09.455Z,21.1
2017-05-27T01:37:17.567Z,21.1
2017-05-27T01:38:25.628Z,21.0
2017-05-27T01:39:33.716Z,21.1
2017-05-27T01:40:41.807Z,21.0
2017-05-27T01:41:49.894Z,21.0
2017-05-27T01:42:57.983Z,21.0
2017-05-27T01:44:06.063Z,21.1
2017-05-27T01:45:14.148Z,21.0
2017-05-27T01:46:22.321Z,21.1
2017-05-27T01:47:30.328Z,21.0
2017-05-27T01:48:38.413Z,21.0
2017-05-27T01:49:46.506Z,21.0
2017-05-27T01:50:54.593Z,21.1
2017-05-27T01:52:02.670Z,21.1
2017-05-27T01:53:10.757Z,21.1
2017-05-27T01:54:18.842Z,21.0
2017-05-27T01:55:26.931Z,21.1
2017-05-27T01:56:35.021Z,21.1
2017-05-27T01:57:43.111Z,21.1
2017-05-27T01:58:51.194Z,21.0
2017-05-27T01:59:59.280Z,21.1
2017-05-27T02:01:07.364Z,21.0
2017-05-27T02:02:15.452Z,21.0
2017-05-27T02:03:23.573Z,21.0
2017-05-27T02:04:31.628Z,21.1
2017-05-27T02:05:39.736Z,21.1
2017-05-27T02:06:47.798Z,21.1
2017-05-27T02:07:55.883Z,21.0
2017-05-27T02:09:03.968Z,21.0
2017-05-27T02:10:12.053Z,21.1
2017-05-27T02:11:20.145Z,21.1
2017-05-27T02:12:28.225Z,21.0
2017-05-27T02:13:36.311Z,21.0
2017-05-27T02:14:44.397Z,21.0
2017-05-27T02:15:52.485Z,21.0
2017-05-27T02:17:00.569Z,21.0
2017-05-27T02:18:08.658Z,21.0
2017-05-27T02:19:16.742Z,21.0
2017-05-27T02:20:24.877Z,21.0
2017-05-27T02:21:32.913Z,21.0
2017-05-27T02:22:41.005Z,21.0
2017-05-27T02:23:49.092Z,21.0
2017-05-27T02:24:57.181Z,21.0
2017-05-27T02:26:05.269Z,21.0
2017-05-27T02:27:13.390Z,20.9
2017-05-27T02:28:21.445Z,21.0
2017-05-27T02:29:29.532Z,20.9
2017-05-27T02:30:37.617Z,20.9
2017-05-27T02:31:45.704Z,20.9
2017-05-27T02:32:53.792Z,20.9
2017-05-27T02:34:01.875Z,20.9
2017-05-27T02:35:09.962Z,20.9
2017-05-27T02:36:18.048Z,20.9
2017-05-27T02:37:26.189Z,21.0
2017-05-27T02:38:34.222Z,20.9
2017-05-27T02:39:42.306Z,20.9
2017-05-27T02:40:50.391Z,20.9
2017-05-27T02:41:58.478Z,20.9
2017-05-27T02:43:06.564Z,20.9
2017-05-27T02:44:14.652Z,20.9
2017-05-27T02:45:22.739Z,20.9
2017-05-27T02:46:30.823Z,20.9
2017-05-27T02:47:38.907Z,20.9
2017-05-27T02:48:47.000Z,20.9
2017-05-27T02:49:55.083Z,20.9
2017-05-27T02:51:03.168Z,20.9
2017-05-27T02:52:11.255Z,20.9
2017-05-27T02:53:19.340Z,20.9
2017-05-27T02:54:27.428Z,20.9
2017-05-27T02:55:35.514Z,20.9
2017-05-27T02:56:43.595Z,20.9
2017-05-27T02:57:51.681Z,20.9
2017-05-27T02:58:59.776Z,20.9
2017-05-27T03:00:07.859Z,20.9
2017-05-27T03:01:15.948Z,20.9
2017-05-27T03:02:24.033Z,20.9
2017-05-27T03:03:32.121Z,20.9
2017-05-27T03:04:40.206Z,20.8
2017-05-27T03:05:48.290Z,20.8
2017-05-27T03:06:56.379Z,20.9
2017-05-27T03:08:04.464Z,20.9
2017-05-27T03:09:12.552Z,20.8
2017-05-27T03:10:20.639Z,20.8
2017-05-27T03:11:28.725Z,20.8
2017-05-27T03:12:36.814Z,20.8
2017-05-27T03:13:44.897Z,20.9
2017-05-27T03:14:52.984Z,20.8
2017-05-27T03:16:01.067Z,20.8
2017-05-27T03:17:09.152Z,20.8
2017-05-27T03:18:17.239Z,20.8
2017-05-27T03:19:25.324Z,20.8
2017-05-27T03:20:33.419Z,20.8
2017-05-27T03:21:41.496Z,20.8
2017-05-27T03:22:49.583Z,20.8
2017-05-27T03:23:57.668Z,20.8
2017-05-27T03:25:05.754Z,20.8
2017-05-27T03:26:13.841Z,20.8
2017-05-27T03:27:21.928Z,20.8
2017-05-27T03:28:30.018Z,20.8
2017-05-27T03:29:38.102Z,20.8
2017-05-27T03:30:46.189Z,20.8
2017-05-27T03:31:54.274Z,20.8
2017-05-27T03:33:02.435Z,20.8
2017-05-27T03:34:10.445Z,20.7
2017-05-27T03:35:18.532Z,20.8
2017-05-27T03:36:26.617Z,20.8
2017-05-27T03:37:34.705Z,20.8
2017-05-27T03:38:42.789Z,20.7
2017-05-27T03:39:50.876Z,20.8
2017-05-27T03:40:58.963Z,20.8
2017-05-27T03:42:07.058Z,20.7
2017-05-27T03:43:15.140Z,20.7
2017-05-27T03:44:23.229Z,20.8
2017-05-27T03:45:31.318Z,20.7
2017-05-27T03:46:39.400Z,20.7
2017-05-27T03:47:47.486Z,20.7
2017-05-27T03:48:55.577Z,20.7
2017-05-27T03:50:03.663Z,20.7
2017-05-27T03:51:11.748Z,20.8
2017-05-27T03:52:19.833Z,20.8
2017-05-27T03:53:27.920Z,20.7
2017-05-27T03:54:36.007Z,20.7
2017-05-27T03:55:44.096Z,20.8
2017-05-27T03:56:52.178Z,20.7
2017-05-27T03:58:00.267Z,20.8
2017-05-27T03:59:08.350Z,20.8
2017-05-27T04:00:16.438Z,20.7
2017-05-27T04:01:24.525Z,20.7
2017-05-27T04:02:32.609Z,20.7
2017-05-27T04:03:40.701Z,20.8
2017-05-27T04:04:48.788Z,20.8
2017-05-27T04:05:56.875Z,20.7
2017-05-27T04:07:04.961Z,20.7
2017-05-27T04:08:13.047Z,20.8
2017-05-27T04:09:21.131Z,20.7
2017-05-27T04:10:29.222Z,20.7
2017-05-27T04:11:37.309Z,20.7
2017-05-27T04:12:45.391Z,20.7
2017-05-27T04:13:53.475Z,20.7
2017-05-27T04:15:01.561Z,20.7
2017-05-27T04:16:09.649Z,20.7
2017-05-27T04:17:17.733Z,20.8
2017-05-27T04:18:25.820Z,20.7
2017-05-27T04:19:33.904Z,20.7
2017-05-27T04:20:41.987Z,20.7
2017-05-27T04:21:50.076Z,20.7
2017-05-27T04:22:58.163Z,20.7
2017-05-27T04:24:06.248Z,20.7
2017-05-27T04:25:14.335Z,20.7
2017-05-27T04:26:22.423Z,20.7
2017-05-27T04:27:30.509Z,20.7
2017-05-27T04:28:38.592Z,20.7
2017-05-27T04:29:46.972Z,20.7
2017-05-27T04:30:54.768Z,20.7
2017-05-27T04:32:02.852Z,20.7
2017-05-27T04:33:10.939Z,20.7
2017-05-27T04:34:19.026Z,20.7
2017-05-27T04:35:27.113Z,20.7
2017-05-27T04:36:35.199Z,20.7
2017-05-27T04:37:43.285Z,20.7
2017-05-27T04:38:51.369Z,20.6
2017-05-27T04:39:59.456Z,20.7
2017-05-27T04:41:07.767Z,20.7
2017-05-27T04:42:15.759Z,20.7
2017-05-27T04:43:23.715Z,20.7
2017-05-27T04:44:31.805Z,20.7
2017-05-27T04:45:39.900Z,20.6
2017-05-27T04:46:47.986Z,20.7
2017-05-27T04:47:56.072Z,20.7
2017-05-27T04:49:04.164Z,20.7
2017-05-27T04:50:12.477Z,20.7
2017-05-27T04:51:20.331Z,20.7
2017-05-27T04:52:28.418Z,20.7
2017-05-27T04:53:36.503Z,20.7
2017-05-27T04:54:44.588Z,20.7
2017-05-27T04:55:52.678Z,20.7
2017-05-27T04:57:00.761Z,20.7
2017-05-27T04:58:08.848Z,20.7
2017-05-27T04:59:16.942Z,20.7
2017-05-27T05:00:25.027Z,20.8
2017-05-27T05:01:33.114Z,20.6
2017-05-27T05:02:41.199Z,20.7
2017-05-27T05:03:49.282Z,20.7
2017-05-27T05:04:57.369Z,20.7
2017-05-27T05:06:05.458Z,20.7
2017-05-27T05:07:13.547Z,20.7
2017-05-27T05:08:21.630Z,20.7
2017-05-27T05:09:29.715Z,20.7
2017-05-27T05:10:37.802Z,20.7
2017-05-27T05:11:45.888Z,20.7
2017-05-27T05:12:53.976Z,20.7
2017-05-27T05:14:02.066Z,20.7
2017-05-27T05:15:10.178Z,20.7
2017-05-27T05:16:18.228Z,20.6
2017-05-27T05:17:26.316Z,20.6
2017-05-27T05:18:34.405Z,20.7
2017-05-27T05:19:42.490Z,20.7
2017-05-27T05:20:50.577Z,20.7
2017-05-27T05:21:58.663Z,20.7
2017-05-27T05:23:07.127Z,20.7
2017-05-27T05:24:14.835Z,20.6
2017-05-27T05:25:22.923Z,20.7
2017-05-27T05:26:31.010Z,20.7
2017-05-27T05:27:39.092Z,20.7
2017-05-27T05:28:47.178Z,20.6
2017-05-27T05:29:55.265Z,20.6
2017-05-27T05:31:03.351Z,20.6
2017-05-27T05:32:11.436Z,20.7
2017-05-27T05:33:19.523Z,20.6
2017-05-27T05:34:27.609Z,20.7
2017-05-27T05:35:35.692Z,20.7
2017-05-27T05:36:43.779Z,20.7
2017-05-27T05:37:51.865Z,20.6
2017-05-27T05:38:59.958Z,20.6
2017-05-27T05:40:08.040Z,20.7
2017-05-27T05:41:16.132Z,20.6
2017-05-27T05:42:24.208Z,20.7
2017-05-27T05:43:32.294Z,20.6
2017-05-27T05:44:40.379Z,20.6
2017-05-27T05:45:48.465Z,20.7
2017-05-27T05:46:56.557Z,20.7
2017-05-27T05:48:04.646Z,20.6
2017-05-27T05:49:12.757Z,20.7
2017-05-27T05:50:20.835Z,20.6
2017-05-27T05:51:28.914Z,20.6
2017-05-27T05:52:37.002Z,20.6
2017-05-27T05:53:45.094Z,20.6
2017-05-27T05:54:53.180Z,20.6
2017-05-27T05:56:01.272Z,20.6
2017-05-27T05:57:09.357Z,20.7
2017-05-27T05:58:17.443Z,20.6
2017-05-27T05:59:25.528Z,20.6
2017-05-27T06:00:33.614Z,20.7
2017-05-27T06:01:41.709Z,20.6
2017-05-27T06:02:49.789Z,20.6
2017-05-27T06:03:57.876Z,20.6
2017-05-27T06:05:05.959Z,20.6
2017-05-27T06:06:14.067Z,20.6
2017-05-27T06:07:22.132Z,20.6
2017-05-27T06:08:30.219Z,20.6
2017-05-27T06:09:38.306Z,20.6
2017-05-27T06:10:46.389Z,20.7
2017-05-27T06:11:54.475Z,20.6
2017-05-27T06:13:02.561Z,20.6
2017-05-27T06:14:10.652Z,20.6
2017-05-27T06:15:18.733Z,20.6
2017-05-27T06:16:26.820Z,20.6
2017-05-27T06:17:34.908Z,20.6
2017-05-27T06:18:42.994Z,20.6
2017-05-27T06:19:51.079Z,20.6
2017-05-27T06:20:59.165Z,20.6
2017-05-27T06:22:07.259Z,20.6
2017-05-27T06:23:15.358Z,20.6
2017-05-27T06:24:23.424Z,20.7
2017-05-27T06:25:31.506Z,20.6
2017-05-27T06:26:39.629Z,20.6
2017-05-27T06:27:47.680Z,20.6
2017-05-27T06:28:55.772Z,20.6
2017-05-27T06:30:03.857Z,20.6
2017-05-27T06:31:11.945Z,20.6
2017-05-27T06:32:20.030Z,20.7
2017-05-27T06:33:28.123Z,20.6
2017-05-27T06:34:36.202Z,20.7
2017-05-27T06:35:44.286Z,20.7
2017-05-27T06:36:52.375Z,20.6
2017-05-27T06:38:00.465Z,20.6
2017-05-27T06:39:08.545Z,20.6
2017-05-27T06:40:16.640Z,20.7
2017-05-27T06:40:16.652Z,20.7
2017-05-27T06:41:24.733Z,20.6
2017-05-27T06:42:32.808Z,20.7
2017-05-27T06:43:40.890Z,20.7
2017-05-27T06:44:48.976Z,20.7
2017-05-27T06:45:57.059Z,20.7
2017-05-27T06:47:05.147Z,20.7
2017-05-27T06:48:13.239Z,20.7
2017-05-27T06:49:21.321Z,20.7
2017-05-27T06:50:29.405Z,20.7
2017-05-27T06:51:37.491Z,20.7
2017-05-27T06:52:45.577Z,20.7
2017-05-27T06:53:54.135Z,20.7
2017-05-27T06:55:02.240Z,20.7
2017-05-27T06:56:09.834Z,20.7
2017-05-27T06:57:17.919Z,20.7
2017-05-27T06:58:26.243Z,20.7
2017-05-27T06:59:34.091Z,20.7
2017-05-27T07:00:42.505Z,20.7
2017-05-27T07:01:50.526Z,20.7
2017-05-27T07:02:58.725Z,20.8
2017-05-27T07:04:06.432Z,20.8
2017-05-27T07:05:14.517Z,20.8
2017-05-27T07:06:23.118Z,20.7
2017-05-27T07:07:30.690Z,20.8
2017-05-27T07:08:38.777Z,20.8
2017-05-27T07:09:47.092Z,20.8
2017-05-27T07:10:55.320Z,20.8
2017-05-27T07:12:03.060Z,20.8
2017-05-27T07:13:11.130Z,20.8
2017-05-27T07:14:19.543Z,20.8
2017-05-27T07:15:27.345Z,20.8
2017-05-27T07:16:35.599Z,20.9
2017-05-27T07:17:43.470Z,20.8
2017-05-27T07:18:51.560Z,20.9
2017-05-27T07:19:59.731Z,20.9
2017-05-27T07:21:07.882Z,20.9
2017-05-27T07:22:15.817Z,20.8
2017-05-27T07:23:23.906Z,20.9
2017-05-27T07:24:31.998Z,20.9
2017-05-27T07:25:40.082Z,20.9
2017-05-27T07:26:48.166Z,20.9
2017-05-27T07:27:56.263Z,20.9
2017-05-27T07:29:04.339Z,20.9
2017-05-27T07:30:12.426Z,20.9
2017-05-27T07:31:20.511Z,20.9
2017-05-27T07:32:28.603Z,20.9
2017-05-27T07:33:36.690Z,20.9
2017-05-27T07:34:44.776Z,20.9
2017-05-27T07:35:52.863Z,20.9
2017-05-27T07:37:00.951Z,20.9
2017-05-27T07:38:09.037Z,20.9
2017-05-27T07:39:17.123Z,20.9
2017-05-27T07:40:25.207Z,20.9
2017-05-27T07:41:33.295Z,21.0
2017-05-27T07:42:41.379Z,21.1
2017-05-27T07:43:49.466Z,21.0
2017-05-27T07:44:57.552Z,21.0
2017-05-27T07:46:05.638Z,21.0
2017-05-27T07:47:13.729Z,21.0
2017-05-27T07:48:21.845Z,21.1
2017-05-27T07:49:29.898Z,21.1
2017-05-27T07:50:37.983Z,21.1
2017-05-27T07:51:46.085Z,21.1
2017-05-27T07:52:54.161Z,21.0
2017-05-27T07:54:02.247Z,21.0
2017-05-27T07:55:10.333Z,21.1
2017-05-27T07:56:18.419Z,21.0
2017-05-27T07:57:26.508Z,21.1
2017-05-27T07:58:34.591Z,21.1
2017-05-27T07:59:42.683Z,21.1
2017-05-27T08:00:50.763Z,21.0
2017-05-27T08:01:58.876Z,21.1
2017-05-27T08:03:06.938Z,21.1
2017-05-27T08:04:15.023Z,21.1
2017-05-27T08:05:23.112Z,21.2
2017-05-27T08:06:31.199Z,21.2
2017-05-27T08:07:39.287Z,21.1
2017-05-27T08:08:47.373Z,21.2
2017-05-27T08:09:55.458Z,21.2
2017-05-27T08:11:03.545Z,21.1
2017-05-27T08:12:11.633Z,21.1
2017-05-27T08:13:19.718Z,21.1
2017-05-27T08:14:27.806Z,21.2
2017-05-27T08:15:35.891Z,21.2
2017-05-27T08:16:43.987Z,21.3
2017-05-27T08:17:52.220Z,21.3
2017-05-27T08:19:00.156Z,21.3
2017-05-27T08:20:08.240Z,21.2
2017-05-27T08:21:16.397Z,21.2
2017-05-27T08:22:24.695Z,21.2
2017-05-27T08:23:32.500Z,21.3
2017-05-27T08:24:40.589Z,21.2
2017-05-27T08:25:48.673Z,21.3
2017-05-27T08:26:56.766Z,21.3
2017-05-27T08:28:04.851Z,21.3
2017-05-27T08:29:12.941Z,21.4
2017-05-27T08:30:21.023Z,21.4
2017-05-27T08:31:29.113Z,21.4
2017-05-27T08:32:37.207Z,21.3
2017-05-27T08:33:45.286Z,21.4
2017-05-27T08:34:53.372Z,21.3
2017-05-27T08:36:01.460Z,21.4
2017-05-27T08:37:09.544Z,21.3
2017-05-27T08:38:17.630Z,21.4
2017-05-27T08:39:25.717Z,21.3
2017-05-27T08:40:33.808Z,21.4
2017-05-27T08:41:41.892Z,21.4
2017-05-27T08:42:49.977Z,21.4
2017-05-27T08:43:58.062Z,21.5
2017-05-27T08:45:06.161Z,21.5
2017-05-27T08:46:14.238Z,21.5
2017-05-27T08:47:22.338Z,21.5
2017-05-27T08:48:30.409Z,21.5
2017-05-27T08:49:38.495Z,21.5
2017-05-27T08:50:46.595Z,21.5
2017-05-27T08:51:54.670Z,21.5
2017-05-27T08:53:02.758Z,21.6
2017-05-27T08:54:10.846Z,21.7
2017-05-27T08:55:18.932Z,21.6
2017-05-27T08:56:27.021Z,21.5
2017-05-27T08:57:35.107Z,21.6
2017-05-27T08:58:43.191Z,21.7
2017-05-27T08:59:51.280Z,21.6
2017-05-27T09:00:59.410Z,21.6
2017-05-27T09:02:07.452Z,21.7
2017-05-27T09:03:15.539Z,21.7
2017-05-27T09:04:23.627Z,21.6
2017-05-27T09:05:31.714Z,21.6
2017-05-27T09:06:39.824Z,21.7
2017-05-27T09:07:47.888Z,21.6
2017-05-27T09:08:55.969Z,21.6
2017-05-27T09:10:04.059Z,21.7
2017-05-27T09:11:12.145Z,21.8
2017-05-27T09:12:20.233Z,21.7
2017-05-27T09:13:28.320Z,21.8
2017-05-27T09:14:36.409Z,21.7
2017-05-27T09:15:44.495Z,21.8
2017-05-27T09:16:52.588Z,21.8
2017-05-27T09:18:00.727Z,21.8
2017-05-27T09:19:08.760Z,21.8
2017-05-27T09:20:16.848Z,21.8
2017-05-27T09:21:24.936Z,21.8
2017-05-27T09:22:33.023Z,21.8
2017-05-27T09:23:41.112Z,21.8
2017-05-27T09:24:49.201Z,21.9
2017-05-27T09:25:57.282Z,21.8
2017-05-27T09:27:05.368Z,21.9
2017-05-27T09:28:13.462Z,21.9
2017-05-27T09:29:21.543Z,21.9
2017-05-27T09:30:29.643Z,21.9
2017-05-27T09:31:37.718Z,21.9
2017-05-27T09:32:45.904Z,22.0
2017-05-27T09:33:53.917Z,22.0
2017-05-27T09:35:02.064Z,22.0
2017-05-27T09:36:10.075Z,22.1
2017-05-27T09:37:18.150Z,22.0
2017-05-27T09:38:26.241Z,22.1
2017-05-27T09:39:34.336Z,22.1
2017-05-27T09:40:42.428Z,22.1
2017-05-27T09:41:50.500Z,22.1
2017-05-27T09:42:58.627Z,22.0
2017-05-27T09:44:06.673Z,22.0
2017-05-27T09:45:14.763Z,22.1
2017-05-27T09:46:22.847Z,22.1
2017-05-27T09:47:30.933Z,22.1
2017-05-27T09:48:39.023Z,22.2
2017-05-27T09:49:47.111Z,22.2
2017-05-27T09:50:55.198Z,22.2
2017-05-27T09:52:03.379Z,22.2
2017-05-27T09:53:11.373Z,22.1
2017-05-27T09:54:19.456Z,22.2
2017-05-27T09:55:27.541Z,22.2
2017-05-27T09:56:35.628Z,22.3
2017-05-27T09:57:43.713Z,22.3
2017-05-27T09:58:51.808Z,22.4
2017-05-27T09:59:59.890Z,22.2
2017-05-27T10:01:07.978Z,22.3
2017-05-27T10:02:16.064Z,22.3
2017-05-27T10:03:24.149Z,22.3
2017-05-27T10:04:32.240Z,22.4
2017-05-27T10:05:40.325Z,22.4
2017-05-27T10:06:48.411Z,22.4
2017-05-27T10:07:56.497Z,22.4
2017-05-27T10:09:04.588Z,22.4
2017-05-27T10:10:12.678Z,22.5
2017-05-27T10:11:20.764Z,22.5
2017-05-27T10:12:28.850Z,22.5
2017-05-27T10:13:36.940Z,22.5
2017-05-27T10:14:45.023Z,22.5
2017-05-27T10:15:53.111Z,22.5
2017-05-27T10:17:01.205Z,22.5
2017-05-27T10:18:09.285Z,22.5
2017-05-27T10:19:17.380Z,22.5
2017-05-27T10:20:25.458Z,22.6
2017-05-27T10:21:33.545Z,22.5
2017-05-27T10:22:41.634Z,22.5
2017-05-27T10:23:49.724Z,22.6
2017-05-27T10:24:57.807Z,22.6
2017-05-27T10:26:05.902Z,22.5
2017-05-27T10:27:13.982Z,22.6
2017-05-27T10:28:22.070Z,22.6
2017-05-27T10:29:30.165Z,22.6
2017-05-27T10:30:38.250Z,22.6
2017-05-27T10:31:46.330Z,22.6
2017-05-27T10:32:54.419Z,22.6
2017-05-27T10:34:02.512Z,22.6
2017-05-27T10:35:10.594Z,22.7
2017-05-27T10:36:18.680Z,22.6
2017-05-27T10:37:26.768Z,22.6
2017-05-27T10:38:34.855Z,22.6
2017-05-27T10:39:42.942Z,22.7
2017-05-27T10:40:51.043Z,22.7
2017-05-27T10:41:59.129Z,22.7
2017-05-27T10:43:07.215Z,22.8
2017-05-27T10:44:15.303Z,22.8
2017-05-27T10:45:23.389Z,22.8
2017-05-27T10:46:31.479Z,22.9
2017-05-27T10:47:39.571Z,22.8
2017-05-27T10:48:47.660Z,22.7
2017-05-27T10:49:55.747Z,22.8
2017-05-27T10:51:03.842Z,22.8
2017-05-27T10:52:11.923Z,22.7
2017-05-27T10:53:20.012Z,22.8
2017-05-27T10:54:28.095Z,22.9
2017-05-27T10:55:36.184Z,22.9
2017-05-27T10:56:44.272Z,22.8
2017-05-27T10:57:52.360Z,22.8
2017-05-27T10:59:00.446Z,22.9
2017-05-27T11:00:08.532Z,23.0
2017-05-27T11:01:16.620Z,23.0
2017-05-27T11:02:24.705Z,22.9
2017-05-27T11:03:32.794Z,22.9
2017-05-27T11:04:40.883Z,22.9
2017-05-27T11:05:48.968Z,22.9
2017-05-27T11:06:57.058Z,23.1
2017-05-27T11:08:05.144Z,23.0
2017-05-27T11:09:13.231Z,23.0
2017-05-27T11:10:21.326Z,23.0
2017-05-27T11:11:29.412Z,23.0
2017-05-27T11:12:37.493Z,23.0
2017-05-27T11:13:45.588Z,23.0
2017-05-27T11:14:53.670Z,23.1
2017-05-27T11:16:01.757Z,23.1
2017-05-27T11:17:09.845Z,23.1
2017-05-27T11:18:17.935Z,23.1
2017-05-27T11:19:26.028Z,23.1
2017-05-27T11:20:34.115Z,23.1
2017-05-27T11:21:42.206Z,23.2
2017-05-27T11:22:50.289Z,23.2
2017-05-27T11:23:58.377Z,23.1
2017-05-27T11:25:06.492Z,23.1
2017-05-27T11:26:14.553Z,23.1
2017-05-27T11:27:22.641Z,23.2
2017-05-27T11:28:30.729Z,23.2
2017-05-27T11:29:38.817Z,23.2
2017-05-27T11:30:46.921Z,23.1
2017-05-27T11:31:54.991Z,23.2
2017-05-27T11:33:03.079Z,23.2
2017-05-27T11:34:11.170Z,23.2
2017-05-27T11:35:19.259Z,23.2
2017-05-27T11:36:27.347Z,23.2
2017-05-27T11:37:35.434Z,23.3
2017-05-27T11:38:43.520Z,23.2
2017-05-27T11:39:51.608Z,23.3
2017-05-27T11:40:59.697Z,23.3
2017-05-27T11:42:07.785Z,23.4
2017-05-27T11:43:15.873Z,23.4
2017-05-27T11:44:23.961Z,23.2
2017-05-27T11:45:32.049Z,23.3
2017-05-27T11:46:40.136Z,23.3
2017-05-27T11:47:48.224Z,23.4
2017-05-27T11:48:56.316Z,23.4
2017-05-27T11:50:04.403Z,23.5
2017-05-27T11:51:12.491Z,23.4
2017-05-27T11:52:20.579Z,23.4
2017-05-27T11:53:28.668Z,23.4
2017-05-27T11:54:36.757Z,23.5
2017-05-27T11:55:44.842Z,23.4
2017-05-27T11:56:52.931Z,23.4
2017-05-27T11:58:01.018Z,23.5
2017-05-27T11:59:09.106Z,23.4
2017-05-27T12:00:17.193Z,23.4
2017-05-27T12:01:25.281Z,23.4
2017-05-27T12:02:33.373Z,23.5
2017-05-27T12:03:41.458Z,23.4
2017-05-27T12:04:49.605Z,23.5
2017-05-27T12:05:57.635Z,23.6
2017-05-27T12:07:05.723Z,23.6
2017-05-27T12:08:13.807Z,23.5
2017-05-27T12:09:21.899Z,23.6
2017-05-27T12:10:29.989Z,23.5
2017-05-27T12:11:38.079Z,23.5
2017-05-27T12:12:46.165Z,23.5
2017-05-27T12:13:54.254Z,23.6
2017-05-27T12:15:02.338Z,23.5
2017-05-27T12:16:10.428Z,23.6
2017-05-27T12:17:18.515Z,23.5
2017-05-27T12:18:26.609Z,23.6
2017-05-27T12:19:34.692Z,23.7
2017-05-27T12:20:42.804Z,23.6
2017-05-27T12:21:50.866Z,23.6
2017-05-27T12:22:59.076Z,23.6
2017-05-27T12:24:07.041Z,23.6
2017-05-27T12:25:15.157Z,23.6
2017-05-27T12:26:23.217Z,23.6
2017-05-27T12:27:31.304Z,23.7
2017-05-27T12:28:39.393Z,23.6
2017-05-27T12:29:47.494Z,23.7
2017-05-27T12:30:55.568Z,23.7
2017-05-27T12:32:03.658Z,23.7
2017-05-27T12:33:11.744Z,23.7
2017-05-27T12:34:19.834Z,23.8
2017-05-27T12:35:27.920Z,23.7
2017-05-27T12:36:36.006Z,23.7
2017-05-27T12:37:44.101Z,23.7
2017-05-27T12:38:52.183Z,23.7
2017-05-27T12:40:00.272Z,23.7
2017-05-27T12:41:08.361Z,23.7
2017-05-27T12:42:16.450Z,23.7
2017-05-27T12:43:24.537Z,23.7
2017-05-27T12:44:32.625Z,23.8
2017-05-27T12:45:40.736Z,23.8
2017-05-27T12:46:48.866Z,23.8
2017-05-27T12:47:56.888Z,23.8
2017-05-27T12:49:04.976Z,23.9
2017-05-27T12:50:13.067Z,23.8
2017-05-27T12:51:21.153Z,23.8
2017-05-27T12:52:29.241Z,23.7
2017-05-27T12:53:37.329Z,23.8
2017-05-27T12:54:45.417Z,23.8
2017-05-27T12:55:53.504Z,23.8
2017-05-27T12:57:01.591Z,23.9
2017-05-27T12:58:09.680Z,23.9
2017-05-27T12:59:17.768Z,23.8
2017-05-27T13:00:25.856Z,23.9
2017-05-27T13:01:33.948Z,23.8
2017-05-27T13:02:42.033Z,23.9
2017-05-27T13:03:50.169Z,23.8
2017-05-27T13:04:58.209Z,23.9
2017-05-27T13:06:06.295Z,23.9
2017-05-27T13:07:14.385Z,23.9
2017-05-27T13:08:22.471Z,23.9
2017-05-27T13:09:30.564Z,23.9
2017-05-27T13:10:38.655Z,23.9
2017-05-27T13:11:46.744Z,23.9
2017-05-27T13:12:54.832Z,23.9
2017-05-27T13:14:02.921Z,23.9
2017-05-27T13:15:11.009Z,23.9
2017-05-27T13:16:19.096Z,23.9
2017-05-27T13:17:27.186Z,23.9
2017-05-27T13:18:35.275Z,23.9
2017-05-27T13:19:43.359Z,23.9
2017-05-27T13:20:51.448Z,24.0
2017-05-27T13:21:59.536Z,24.0
2017-05-27T13:23:07.625Z,23.9
2017-05-27T13:24:15.712Z,23.9
2017-05-27T13:25:23.806Z,24.1
2017-05-27T13:26:31.898Z,24.0
2017-05-27T13:27:39.982Z,24.0
2017-05-27T13:28:48.070Z,24.0
2017-05-27T13:29:56.160Z,24.0
2017-05-27T13:31:04.248Z,24.0
2017-05-27T13:32:12.335Z,24.0
2017-05-27T13:33:20.422Z,23.9
2017-05-27T13:34:28.512Z,24.0
2017-05-27T13:35:36.600Z,24.0
2017-05-27T13:36:44.689Z,24.0
2017-05-27T13:37:52.777Z,24.0
2017-05-27T13:39:00.875Z,24.0
2017-05-27T13:40:08.953Z,24.0
2017-05-27T13:41:17.044Z,24.0
2017-05-27T13:42:25.138Z,24.0
2017-05-27T13:43:33.217Z,24.0
2017-05-27T13:44:41.304Z,24.1
2017-05-27T13:45:49.395Z,24.2
2017-05-27T13:46:57.485Z,24.2
2017-05-27T13:48:05.573Z,24.1
2017-05-27T13:49:13.667Z,24.1
2017-05-27T13:50:21.812Z,24.1
2017-05-27T13:51:30.092Z,24.1
2017-05-27T13:52:37.931Z,24.1
2017-05-27T13:53:46.020Z,24.2
2017-05-27T13:54:54.114Z,24.1
2017-05-27T13:56:02.198Z,24.2
2017-05-27T13:57:10.355Z,24.2
2017-05-27T13:58:18.374Z,24.2
2017-05-27T13:59:26.470Z,24.2
2017-05-27T14:00:34.561Z,24.2
2017-05-27T14:01:42.656Z,24.2
2017-05-27T14:02:50.735Z,24.2
2017-05-27T14:03:58.825Z,24.2
2017-05-27T14:05:06.913Z,24.2
2017-05-27T14:06:15.001Z,24.2
2017-05-27T14:07:23.099Z,24.3
2017-05-27T14:08:31.215Z,24.3
2017-05-27T14:09:39.265Z,24.3
2017-05-27T14:10:47.353Z,24.3
2017-05-27T14:11:55.442Z,24.2
2017-05-27T14:13:03.529Z,24.3
2017-05-27T14:14:11.618Z,24.3
2017-05-27T14:15:19.707Z,24.3
2017-05-27T14:16:27.804Z,24.3
2017-05-27T14:17:35.888Z,24.3
2017-05-27T14:18:43.986Z,24.3
2017-05-27T14:19:52.071Z,24.3
2017-05-27T14:21:00.165Z,24.3
2017-05-27T14:22:08.251Z,24.4
2017-05-27T14:23:16.338Z,24.3
2017-05-27T14:24:24.434Z,24.3
2017-05-27T14:25:32.524Z,24.3
2017-05-27T14:26:40.610Z,24.3
2017-05-27T14:27:48.712Z,24.3
2017-05-27T14:28:56.788Z,24.3
2017-05-27T14:30:04.880Z,24.4
2017-05-27T14:31:12.966Z,24.4
2017-05-27T14:32:21.066Z,24.4
2017-05-27T14:33:29.145Z,24.4
2017-05-27T14:34:37.238Z,24.4
2017-05-27T14:35:45.320Z,24.4
2017-05-27T14:36:53.411Z,24.4
2017-05-27T14:38:01.499Z,24.4
2017-05-27T14:39:09.585Z,24.4
2017-05-27T14:40:17.675Z,24.3
2017-05-27T14:41:25.763Z,24.4
2017-05-27T14:42:33.911Z,24.4
2017-05-27T14:43:41.954Z,24.3
2017-05-27T14:44:50.031Z,24.3
2017-05-27T14:45:58.118Z,24.4
2017-05-27T14:47:06.206Z,24.4
2017-05-27T14:48:14.294Z,24.4
2017-05-27T14:49:22.382Z,24.5
2017-05-27T14:50:30.470Z,24.5
2017-05-27T14:51:38.561Z,24.5
2017-05-27T14:52:46.650Z,24.5
2017-05-27T14:53:54.738Z,24.5
2017-05-27T14:55:02.825Z,24.5
2017-05-27T14:56:10.916Z,24.5
2017-05-27T14:57:19.005Z,24.5
2017-05-27T14:58:27.100Z,24.5
2017-05-27T14:59:35.189Z,24.5
2017-05-27T15:00:43.277Z,24.6
2017-05-27T15:01:51.365Z,24.5
2017-05-27T15:02:59.454Z,24.5
2017-05-27T15:04:07.541Z,24.6
2017-05-27T15:05:15.630Z,24.5